createdAt,value
2024-02-15T00:01:06.680Z,67.99
2024-02-15T00:03:52.023Z,68.04
2024-02-15T00:06:19.021Z,67.77
2024-02-15T00:08:46.122Z,67.82
2024-02-15T00:11:14.850Z,67.69
2024-02-15T00:13:42.130Z,67.70
2024-02-15T00:16:09.080Z,67.82
2024-02-15T00:18:36.170Z,67.83
2024-02-15T00:21:03.146Z,67.66
2024-02-15T00:23:30.116Z,67.81
2024-02-15T00:25:57.038Z,67.74
2024-02-15T00:28:25.096Z,67.81
2024-02-15T00:30:52.013Z,67.74
2024-02-15T00:33:19.009Z,67.91
2024-02-15T00:35:46.249Z,67.86
2024-02-15T00:38:13.157Z,67.94
2024-02-15T00:40:41.096Z,67.94
2024-02-15T00:43:08.010Z,67.84
2024-02-15T00:45:34.937Z,67.89
2024-02-15T00:48:02.060Z,67.99
2024-02-15T00:50:29.331Z,67.87
2024-02-15T00:52:56.417Z,67.89
2024-02-15T00:55:23.400Z,68.05
2024-02-15T00:57:50.335Z,67.97
2024-02-15T01:00:17.479Z,68.02
2024-02-15T01:02:44.461Z,67.85
2024-02-15T01:05:11.511Z,67.68
2024-02-15T01:07:38.555Z,67.71
2024-02-15T01:10:07.112Z,67.96
2024-02-15T01:12:34.199Z,67.93
2024-02-15T01:15:01.155Z,68.08
2024-02-15T01:17:28.216Z,68.00
2024-02-15T01:19:55.259Z,68.16
2024-02-15T01:22:24.868Z,68.04
2024-02-15T01:24:51.912Z,67.98
2024-02-15T01:27:18.859Z,68.06
2024-02-15T01:29:45.783Z,68.09
2024-02-15T01:32:12.723Z,67.86
2024-02-15T01:34:39.664Z,68.17
2024-02-15T01:37:06.707Z,67.94
2024-02-15T01:39:33.647Z,67.95
2024-02-15T01:42:00.653Z,67.81
2024-02-15T01:44:28.005Z,67.65
2024-02-15T01:46:55.688Z,67.53
2024-02-15T01:49:28.777Z,67.64
2024-02-15T01:51:58.200Z,67.68
2024-02-15T01:54:26.073Z,67.62
2024-02-15T01:56:53.972Z,67.80
2024-02-15T01:59:24.093Z,67.57
2024-02-15T02:01:52.007Z,67.75
2024-02-15T02:04:18.906Z,67.99
2024-02-15T02:06:45.870Z,67.86
2024-02-15T02:09:17.014Z,67.69
2024-02-15T02:11:47.629Z,68.02
2024-02-15T02:14:14.824Z,67.79
2024-02-15T02:16:41.742Z,67.93
2024-02-15T02:19:10.536Z,67.67
2024-02-15T02:21:39.964Z,67.73
2024-02-15T02:24:22.525Z,67.76
2024-02-15T02:26:50.294Z,67.42
2024-02-15T02:29:17.711Z,67.69
2024-02-15T02:31:44.649Z,67.76
2024-02-15T02:34:12.017Z,68.03
2024-02-15T02:36:39.200Z,68.00
2024-02-15T02:39:06.242Z,68.03
2024-02-15T02:41:33.382Z,68.01
2024-02-15T02:44:00.436Z,68.02
2024-02-15T02:46:27.401Z,67.94
2024-02-15T02:48:54.513Z,67.99
2024-02-15T02:51:21.639Z,67.86
2024-02-15T02:53:48.760Z,67.85
2024-02-15T02:56:16.017Z,67.93
2024-02-15T02:58:45.722Z,68.08
2024-02-15T03:01:12.843Z,68.13
2024-02-15T03:03:40.825Z,67.92
2024-02-15T03:06:08.045Z,68.18
2024-02-15T03:08:35.386Z,68.12
2024-02-15T03:11:02.834Z,68.15
2024-02-15T03:13:30.376Z,68.18
2024-02-15T03:15:57.331Z,68.01
2024-02-15T03:18:25.647Z,68.09
2024-02-15T03:20:53.079Z,68.22
2024-02-15T03:23:20.134Z,68.31
2024-02-15T03:25:47.090Z,68.38
2024-02-15T03:28:14.873Z,68.18
2024-02-15T03:30:41.775Z,68.37
2024-02-15T03:33:08.771Z,68.12
2024-02-15T03:35:36.440Z,68.46
2024-02-15T03:38:03.483Z,68.43
2024-02-15T03:40:31.500Z,68.34
2024-02-15T03:42:58.833Z,68.47
2024-02-15T03:45:27.139Z,68.64
2024-02-15T03:47:55.042Z,68.35
2024-02-15T03:50:23.185Z,68.54
2024-02-15T03:52:51.655Z,68.65
2024-02-15T03:55:18.907Z,68.47
2024-02-15T03:57:47.672Z,68.45
2024-02-15T04:00:22.596Z,68.42
2024-02-15T04:02:50.486Z,68.48
2024-02-15T04:05:19.517Z,68.43
2024-02-15T04:07:46.773Z,68.42
2024-02-15T04:10:14.136Z,68.54
2024-02-15T04:12:43.308Z,68.51
2024-02-15T04:15:15.658Z,68.49
2024-02-15T04:17:43.812Z,68.46
2024-02-15T04:20:13.304Z,68.36
2024-02-15T04:22:43.592Z,68.37
2024-02-15T04:25:11.557Z,68.49
2024-02-15T04:27:38.638Z,68.21
2024-02-15T04:30:06.128Z,68.32
2024-02-15T04:32:35.582Z,68.24
2024-02-15T04:35:04.359Z,68.23
2024-02-15T04:37:33.640Z,68.11
2024-02-15T04:40:09.318Z,68.22
2024-02-15T04:42:40.710Z,68.13
2024-02-15T04:45:13.745Z,68.21
2024-02-15T04:47:44.636Z,68.16
2024-02-15T04:50:12.149Z,68.25
2024-02-15T04:52:39.569Z,68.36
2024-02-15T04:55:06.989Z,68.26
2024-02-15T04:57:36.153Z,68.27
2024-02-15T05:00:10.404Z,68.27
2024-02-15T05:02:41.424Z,68.29
2024-02-15T05:05:09.260Z,68.33
2024-02-15T05:07:38.622Z,68.30
2024-02-15T05:10:07.744Z,68.19
2024-02-15T05:12:34.832Z,68.36
2024-02-15T05:15:02.019Z,67.92
2024-02-15T05:17:31.057Z,68.28
2024-02-15T05:20:00.309Z,68.35
2024-02-15T05:22:30.348Z,68.26
2024-02-15T05:24:57.256Z,68.52
2024-02-15T05:27:24.578Z,68.50
2024-02-15T05:29:53.846Z,68.46
2024-02-15T05:32:21.334Z,68.62
2024-02-15T05:34:49.082Z,68.40
2024-02-15T05:37:16.957Z,68.54
2024-02-15T05:39:44.189Z,68.55
2024-02-15T05:42:11.684Z,68.44
2024-02-15T05:44:38.675Z,68.58
2024-02-15T05:47:05.747Z,68.45
2024-02-15T05:49:32.795Z,68.61
2024-02-15T05:51:59.825Z,68.71
2024-02-15T05:54:26.753Z,68.63
2024-02-15T05:56:55.047Z,68.45
2024-02-15T05:59:22.349Z,68.64
2024-02-15T06:01:49.682Z,68.68
2024-02-15T06:04:17.945Z,68.71
2024-02-15T06:06:49.817Z,68.71
2024-02-15T06:09:17.688Z,68.74
2024-02-15T06:11:46.658Z,68.66
2024-02-15T06:14:13.944Z,68.81
2024-02-15T06:16:47.197Z,68.66
2024-02-15T06:19:15.829Z,68.70
2024-02-15T06:21:43.437Z,68.82
2024-02-15T06:24:11.579Z,68.77
2024-02-15T06:26:38.767Z,68.68
2024-02-15T06:29:24.216Z,68.80
2024-02-15T06:32:09.684Z,68.86
2024-02-15T06:34:55.676Z,68.84
2024-02-15T06:37:59.465Z,68.84
2024-02-15T06:40:26.351Z,68.92
2024-02-15T06:42:53.303Z,68.91
2024-02-15T06:45:20.961Z,68.97
2024-02-15T06:47:48.208Z,68.92
2024-02-15T06:50:15.528Z,68.92
2024-02-15T06:52:42.785Z,69.01
2024-02-15T06:55:13.065Z,69.05
2024-02-15T06:57:42.851Z,69.25
2024-02-15T07:00:16.846Z,69.07
2024-02-15T07:02:45.795Z,69.58
2024-02-15T07:05:13.005Z,69.16
2024-02-15T07:07:40.420Z,69.24
2024-02-15T07:10:08.122Z,69.25
2024-02-15T07:12:35.259Z,69.30
2024-02-15T07:15:03.015Z,69.15
2024-02-15T07:17:30.575Z,69.31
2024-02-15T07:19:57.591Z,69.37
2024-02-15T07:22:24.575Z,69.46
2024-02-15T07:24:51.521Z,69.46
2024-02-15T07:27:19.633Z,69.50
2024-02-15T07:29:46.607Z,69.60
2024-02-15T07:32:13.619Z,69.50
2024-02-15T07:34:40.588Z,69.75
2024-02-15T07:37:08.685Z,69.63
2024-02-15T07:39:37.375Z,69.66
2024-02-15T07:42:05.826Z,69.74
2024-02-15T07:44:33.548Z,69.70
2024-02-15T07:47:03.560Z,69.74
2024-02-15T07:49:30.653Z,69.56
2024-02-15T07:51:57.677Z,69.57
2024-02-15T07:54:25.484Z,69.44
2024-02-15T07:56:53.005Z,69.23
2024-02-15T07:59:20.901Z,69.27
2024-02-15T08:01:48.997Z,69.31
2024-02-15T08:04:18.158Z,69.37
2024-02-15T08:06:45.594Z,69.33
2024-02-15T08:09:15.089Z,69.31
2024-02-15T08:11:42.392Z,69.33
2024-02-15T08:14:14.012Z,69.20
2024-02-15T08:16:44.208Z,69.41
2024-02-15T08:19:12.314Z,69.56
2024-02-15T08:21:42.323Z,69.47
2024-02-15T08:24:10.489Z,69.31
2024-02-15T08:26:43.174Z,69.51
2024-02-15T08:29:10.602Z,69.50
2024-02-15T08:31:37.828Z,69.56
2024-02-15T08:34:07.069Z,69.55
2024-02-15T08:36:34.319Z,69.48
2024-02-15T08:39:01.983Z,69.57
2024-02-15T08:41:29.367Z,69.68
2024-02-15T08:43:59.147Z,69.66
2024-02-15T08:46:28.041Z,69.60
2024-02-15T08:48:55.134Z,69.80
2024-02-15T08:51:24.629Z,69.76
2024-02-15T08:53:52.506Z,69.72
2024-02-15T08:56:19.670Z,69.83
2024-02-15T08:58:46.640Z,69.90
2024-02-15T09:01:14.643Z,69.88
2024-02-15T09:03:41.862Z,69.62
2024-02-15T09:06:09.248Z,69.79
2024-02-15T09:08:36.589Z,69.54
2024-02-15T09:11:06.174Z,69.33
2024-02-15T09:13:34.947Z,69.33
2024-02-15T09:16:02.081Z,69.34
2024-02-15T09:18:29.119Z,69.31
2024-02-15T09:20:57.165Z,69.25
2024-02-15T09:23:24.821Z,69.01
2024-02-15T09:25:54.796Z,69.23
2024-02-15T09:28:24.903Z,68.93
2024-02-15T09:30:54.634Z,69.02
2024-02-15T09:33:22.147Z,69.01
2024-02-15T09:35:49.388Z,68.83
2024-02-15T09:38:18.019Z,68.95
2024-02-15T09:40:45.526Z,69.08
2024-02-15T09:43:16.133Z,68.85
2024-02-15T09:45:43.422Z,68.98
2024-02-15T09:48:14.293Z,69.34
2024-02-15T09:50:46.832Z,69.16
2024-02-15T09:53:16.118Z,69.19
2024-02-15T09:55:44.208Z,69.18
2024-02-15T09:58:13.639Z,69.22
2024-02-15T10:00:40.779Z,69.17
2024-02-15T10:03:08.490Z,69.10
2024-02-15T10:05:36.403Z,69.06
2024-02-15T10:08:04.378Z,68.69
2024-02-15T10:10:31.282Z,68.67
2024-02-15T10:13:01.933Z,68.50
2024-02-15T10:15:41.438Z,68.34
2024-02-15T10:18:13.577Z,68.36
2024-02-15T10:20:45.366Z,68.34
2024-02-15T10:23:14.391Z,68.59
2024-02-15T10:25:42.313Z,68.35
2024-02-15T10:28:16.564Z,68.46
2024-02-15T10:30:46.329Z,68.35
2024-02-15T10:33:31.186Z,68.22
2024-02-15T10:36:15.731Z,68.22
2024-02-15T10:38:43.285Z,68.27
2024-02-15T10:41:12.115Z,68.28
2024-02-15T10:43:39.645Z,68.51
2024-02-15T10:46:11.045Z,67.89
2024-02-15T10:48:39.181Z,67.76
2024-02-15T10:51:12.083Z,68.27
2024-02-15T10:53:48.608Z,67.70
2024-02-15T10:56:24.374Z,67.88
2024-02-15T10:58:52.159Z,67.90
2024-02-15T11:01:19.759Z,67.61
2024-02-15T11:03:53.966Z,67.66
2024-02-15T11:06:23.017Z,67.46
2024-02-15T11:08:51.035Z,67.01
2024-02-15T11:11:19.268Z,66.95
2024-02-15T11:13:48.883Z,67.12
2024-02-15T11:16:49.766Z,66.71
2024-02-15T11:19:38.466Z,66.87
2024-02-15T11:22:18.127Z,66.43
2024-02-15T11:24:54.112Z,66.32
2024-02-15T11:27:32.737Z,66.36
2024-02-15T11:30:11.494Z,66.56
2024-02-15T11:32:50.136Z,66.62
2024-02-15T11:35:21.417Z,66.24
2024-02-15T11:37:59.310Z,66.36
2024-02-15T11:40:31.106Z,66.18
2024-02-15T11:43:01.370Z,66.55
2024-02-15T11:45:39.664Z,66.54
2024-02-15T11:48:12.342Z,65.77
2024-02-15T11:50:40.946Z,66.26
2024-02-15T11:53:13.131Z,66.26
2024-02-15T11:55:42.729Z,66.10
2024-02-15T11:58:11.899Z,66.55
2024-02-15T12:00:59.078Z,66.50
2024-02-15T12:06:37.397Z,66.70
2024-02-15T12:09:23.473Z,67.20
2024-02-15T12:12:18.294Z,66.92
2024-02-15T12:15:04.058Z,66.95
2024-02-15T12:17:49.896Z,66.89
2024-02-15T12:20:16.978Z,67.28
2024-02-15T12:22:51.426Z,67.29
2024-02-15T12:25:22.167Z,66.88
2024-02-15T12:28:00.927Z,66.50
2024-02-15T12:30:37.458Z,66.54
2024-02-15T12:33:12.760Z,66.46
2024-02-15T12:35:39.982Z,66.02
2024-02-15T12:38:06.957Z,66.04
2024-02-15T12:40:37.387Z,65.80
2024-02-15T12:43:06.871Z,65.91
2024-02-15T12:45:37.920Z,65.82
2024-02-15T12:48:07.052Z,65.78
2024-02-15T12:50:37.742Z,65.77
2024-02-15T12:53:05.113Z,65.48
2024-02-15T12:55:36.234Z,65.44
2024-02-15T12:58:09.478Z,65.34
2024-02-15T13:00:41.000Z,65.51
2024-02-15T13:03:11.086Z,65.76
2024-02-15T13:05:39.566Z,65.28
2024-02-15T13:08:10.777Z,65.74
2024-02-15T13:10:40.336Z,65.87
2024-02-15T13:13:07.786Z,65.68
2024-02-15T13:15:35.442Z,65.94
2024-02-15T13:18:05.888Z,66.00
2024-02-15T13:20:34.109Z,65.58
2024-02-15T13:23:10.442Z,65.34
2024-02-15T13:25:40.469Z,65.86
2024-02-15T13:28:10.012Z,65.81
2024-02-15T13:30:37.516Z,65.41
2024-02-15T13:33:04.883Z,65.28
2024-02-15T13:35:32.917Z,65.04
2024-02-15T13:37:59.865Z,65.28
2024-02-15T13:40:28.898Z,65.04
2024-02-15T13:43:00.763Z,64.98
2024-02-15T13:45:38.355Z,64.75
2024-02-15T13:48:06.435Z,65.24
2024-02-15T13:50:33.983Z,65.16
2024-02-15T13:53:01.663Z,64.83
2024-02-15T13:55:30.079Z,64.64
2024-02-15T13:57:57.974Z,64.83
2024-02-15T14:00:30.894Z,64.81
2024-02-15T14:03:00.569Z,64.68
2024-02-15T14:05:30.284Z,64.74
2024-02-15T14:08:06.549Z,64.68
2024-02-15T14:10:37.366Z,64.98
2024-02-15T14:13:10.305Z,64.91
2024-02-15T14:15:41.686Z,65.03
2024-02-15T14:18:12.471Z,64.64
2024-02-15T14:20:39.995Z,64.98
2024-02-15T14:23:07.457Z,64.74
2024-02-15T14:25:34.835Z,64.56
2024-02-15T14:28:04.027Z,64.99
2024-02-15T14:30:49.552Z,64.49
2024-02-15T14:35:47.440Z,64.61
2024-02-15T14:38:14.955Z,64.84
2024-02-15T14:40:46.230Z,64.54
2024-02-15T14:43:19.723Z,64.37
2024-02-15T14:45:47.138Z,64.93
2024-02-15T14:48:15.150Z,64.88
2024-02-15T14:50:43.551Z,64.54
2024-02-15T14:53:10.724Z,64.52
2024-02-15T14:55:43.991Z,64.55
2024-02-15T14:58:13.455Z,64.86
2024-02-15T15:00:43.605Z,64.90
2024-02-15T15:03:13.107Z,64.54
2024-02-15T15:05:59.370Z,64.95
2024-02-15T15:08:45.313Z,64.76
2024-02-15T15:11:30.811Z,65.12
2024-02-15T15:13:57.792Z,65.09
2024-02-15T15:16:26.413Z,65.14
2024-02-15T15:18:53.740Z,64.85
2024-02-15T15:21:23.936Z,65.21
2024-02-15T15:23:51.248Z,64.72
2024-02-15T15:26:22.829Z,64.87
2024-02-15T15:28:51.032Z,64.81
2024-02-15T15:31:18.596Z,64.54
2024-02-15T15:33:46.074Z,65.10
2024-02-15T15:36:13.495Z,64.83
2024-02-15T15:38:40.706Z,64.96
2024-02-15T15:41:10.983Z,65.07
2024-02-15T15:43:38.765Z,65.38
2024-02-15T15:46:06.345Z,65.25
2024-02-15T15:48:37.965Z,65.02
2024-02-15T15:51:06.675Z,65.25
2024-02-15T15:53:35.271Z,64.98
2024-02-15T15:56:02.540Z,64.89
2024-02-15T15:58:29.578Z,64.75
2024-02-15T16:00:57.458Z,65.17
2024-02-15T16:03:24.560Z,65.39
2024-02-15T16:05:52.210Z,65.23
2024-02-15T16:08:19.147Z,65.20
2024-02-15T16:10:46.562Z,64.85
2024-02-15T16:13:13.995Z,64.72
2024-02-15T16:15:44.866Z,65.34
2024-02-15T16:18:11.951Z,65.22
2024-02-15T16:20:39.643Z,65.21
2024-02-15T16:23:07.569Z,65.18
2024-02-15T16:25:35.148Z,64.88
2024-02-15T16:28:03.392Z,65.19
2024-02-15T16:30:30.472Z,65.33
2024-02-15T16:32:57.579Z,65.31
2024-02-15T16:35:24.624Z,65.75
2024-02-15T16:37:51.561Z,65.50
2024-02-15T16:40:18.494Z,65.59
2024-02-15T16:42:48.739Z,65.78
2024-02-15T16:45:19.595Z,65.98
2024-02-15T16:47:57.092Z,66.24
2024-02-15T16:50:24.834Z,65.81
2024-02-15T16:52:52.697Z,66.18
2024-02-15T16:55:29.404Z,66.12
2024-02-15T16:58:04.411Z,66.27
2024-02-15T17:00:32.856Z,66.45
2024-02-15T17:03:00.095Z,66.38
2024-02-15T17:05:29.552Z,66.68
2024-02-15T17:08:00.265Z,66.34
2024-02-15T17:10:27.546Z,66.30
2024-02-15T17:12:54.889Z,66.34
2024-02-15T17:15:26.894Z,66.32
2024-02-15T17:17:55.596Z,66.31
2024-02-15T17:20:24.353Z,66.39
2024-02-15T17:22:51.624Z,66.19
2024-02-15T17:25:18.706Z,66.26
2024-02-15T17:27:45.682Z,66.66
2024-02-15T17:30:14.665Z,66.35
2024-02-15T17:32:44.413Z,66.12
2024-02-15T17:35:14.354Z,66.17
2024-02-15T17:37:42.243Z,66.22
2024-02-15T17:40:13.597Z,66.19
2024-02-15T17:42:42.290Z,66.29
2024-02-15T17:45:11.031Z,66.42
2024-02-15T17:47:40.609Z,66.22
2024-02-15T17:50:15.390Z,66.44
2024-02-15T17:52:44.937Z,66.48
2024-02-15T17:55:12.006Z,66.88
2024-02-15T17:57:39.775Z,66.95
2024-02-15T18:00:16.053Z,66.78
2024-02-15T18:02:50.029Z,66.73
2024-02-15T18:05:19.708Z,67.23
2024-02-15T18:07:47.403Z,67.49
2024-02-15T18:10:16.053Z,67.41
2024-02-15T18:12:43.333Z,67.15
2024-02-15T18:15:25.441Z,67.66
2024-02-15T18:17:57.587Z,67.45
2024-02-15T18:20:25.973Z,67.59
2024-02-15T18:22:53.250Z,67.52
2024-02-15T18:25:20.348Z,67.38
2024-02-15T18:27:48.008Z,67.37
2024-02-15T18:30:19.315Z,67.76
2024-02-15T18:32:47.217Z,67.44
2024-02-15T18:35:17.061Z,67.61
2024-02-15T18:37:44.685Z,67.59
2024-02-15T18:40:21.786Z,67.39
2024-02-15T18:42:52.047Z,67.63
2024-02-15T18:45:19.320Z,67.67
2024-02-15T18:47:46.658Z,67.33
2024-02-15T18:50:14.022Z,67.43
2024-02-15T18:52:42.102Z,67.67
2024-02-15T18:55:11.742Z,67.74
2024-02-15T18:57:38.707Z,67.58
2024-02-15T19:00:16.030Z,67.54
2024-02-15T19:02:53.196Z,67.88
2024-02-15T19:05:23.840Z,67.92
2024-02-15T19:07:52.118Z,67.67
2024-02-15T19:10:20.979Z,67.89
2024-02-15T19:12:48.086Z,67.85
2024-02-15T19:15:15.780Z,67.51
2024-02-15T19:17:42.942Z,67.77
2024-02-15T19:20:10.729Z,67.77
2024-02-15T19:22:41.677Z,67.63
2024-02-15T19:25:10.297Z,67.83
2024-02-15T19:27:37.932Z,67.32
2024-02-15T19:30:05.424Z,67.05
2024-02-15T19:32:32.386Z,67.49
2024-02-15T19:34:59.581Z,66.92
2024-02-15T19:37:31.172Z,66.85
2024-02-15T19:39:58.119Z,67.19
2024-02-15T19:42:25.097Z,67.13
2024-02-15T19:44:52.061Z,66.76
2024-02-15T19:47:21.445Z,66.81
2024-02-15T19:49:48.406Z,66.76
2024-02-15T19:52:16.781Z,67.19
2024-02-15T19:54:43.713Z,66.85
2024-02-15T19:57:10.677Z,66.95
2024-02-15T19:59:37.705Z,67.37
2024-02-15T20:02:04.857Z,67.39
2024-02-15T20:04:36.595Z,67.58
2024-02-15T20:07:04.714Z,67.55
2024-02-15T20:09:40.391Z,67.35
2024-02-15T20:12:15.006Z,67.50
2024-02-15T20:14:42.400Z,67.35
2024-02-15T20:17:11.236Z,67.40
2024-02-15T20:19:38.999Z,67.79
2024-02-15T20:22:06.066Z,67.55
2024-02-15T20:24:33.841Z,67.98
2024-02-15T20:27:01.538Z,68.01
2024-02-15T20:29:31.526Z,68.00
2024-02-15T20:31:59.585Z,67.82
2024-02-15T20:34:27.748Z,68.07
2024-02-15T20:36:54.861Z,67.80
2024-02-15T20:39:22.347Z,67.72
2024-02-15T20:41:50.229Z,67.67
2024-02-15T20:44:18.131Z,67.60
2024-02-15T20:46:45.633Z,67.65
2024-02-15T20:49:14.137Z,67.88
2024-02-15T20:51:41.297Z,67.72
2024-02-15T20:54:08.255Z,67.88
2024-02-15T20:56:37.620Z,67.79
2024-02-15T20:59:06.333Z,67.71
2024-02-15T21:01:34.963Z,67.46
2024-02-15T21:04:05.990Z,68.08
2024-02-15T21:06:33.428Z,67.73
2024-02-15T21:09:00.590Z,67.49
2024-02-15T21:11:27.612Z,67.65
2024-02-15T21:13:54.525Z,67.52
2024-02-15T21:16:22.856Z,67.38
2024-02-15T21:18:54.118Z,67.11
2024-02-15T21:21:23.269Z,67.46
2024-02-15T21:23:50.444Z,67.22
2024-02-15T21:26:17.679Z,67.62
2024-02-15T21:28:45.302Z,67.14
2024-02-15T21:31:16.487Z,67.26
2024-02-15T21:33:47.259Z,66.97
2024-02-15T21:36:15.414Z,67.20
2024-02-15T21:38:44.787Z,66.92
2024-02-15T21:41:12.649Z,67.15
2024-02-15T21:43:39.762Z,66.76
2024-02-15T21:46:06.753Z,66.99
2024-02-15T21:48:34.386Z,66.88
2024-02-15T21:51:01.580Z,66.71
2024-02-15T21:53:28.584Z,66.62
2024-02-15T21:55:55.549Z,66.19
2024-02-15T21:58:22.440Z,66.34
2024-02-15T22:00:49.385Z,66.46
2024-02-15T22:03:16.966Z,66.71
2024-02-15T22:05:44.024Z,66.78
2024-02-15T22:08:14.736Z,66.63
2024-02-15T22:10:42.493Z,66.68
2024-02-15T22:13:15.380Z,66.51
2024-02-15T22:15:42.513Z,66.94
2024-02-15T22:18:10.196Z,66.58
2024-02-15T22:20:37.222Z,66.86
2024-02-15T22:23:04.350Z,66.54
2024-02-15T22:25:34.060Z,66.54
2024-02-15T22:28:00.969Z,66.83
2024-02-15T22:30:28.063Z,66.70
2024-02-15T22:32:56.995Z,66.95
2024-02-15T22:35:24.826Z,67.01
2024-02-15T22:37:51.820Z,66.83
2024-02-15T22:40:18.908Z,66.97
2024-02-15T22:42:45.814Z,66.86
2024-02-15T22:45:14.474Z,67.02
2024-02-15T22:47:43.139Z,67.09
2024-02-15T22:50:10.448Z,67.27
2024-02-15T22:52:38.070Z,67.16
2024-02-15T22:55:05.360Z,67.45
2024-02-15T22:57:32.847Z,67.28
2024-02-15T23:00:00.341Z,67.53
2024-02-15T23:02:27.313Z,67.51
2024-02-15T23:04:54.339Z,67.21
2024-02-15T23:07:24.452Z,67.65
2024-02-15T23:09:51.609Z,67.26
2024-02-15T23:12:18.733Z,67.55
2024-02-15T23:14:45.847Z,67.18
2024-02-15T23:17:12.966Z,67.43
2024-02-15T23:19:40.600Z,67.05
2024-02-15T23:22:10.090Z,67.22
2024-02-15T23:24:38.558Z,67.01
2024-02-15T23:27:06.476Z,66.76
2024-02-15T23:29:33.667Z,66.99
2024-02-15T23:32:00.603Z,66.88
2024-02-15T23:34:27.554Z,67.18
2024-02-15T23:37:13.344Z,66.89
2024-02-15T23:39:58.801Z,66.95
2024-02-15T23:42:26.583Z,66.75
2024-02-15T23:44:54.463Z,66.72
2024-02-15T23:47:21.605Z,66.42
2024-02-15T23:49:49.128Z,66.69
2024-02-15T23:52:16.265Z,66.91
2024-02-15T23:54:43.335Z,66.88
2024-02-15T23:57:10.515Z,66.59
2024-02-15T23:59:37.522Z,66.61
